Time;durP1;ratioP1;P1;durP2;ratioP2;P2;SDS_P1;SDS_P2;PMS_P1;PMS_P2;Temp;Humidity;BMP_temperature;BMP_pressure;BME280_temperature;BME280_humidity;BME280_pressure;Samples;Min_cycle;Max_cycle;Signal;HPM_P1;HPM_P2
2023/04/29 00:01:44;;;;;;;15.17;9.10;;;18.40;99.90;;;;;;5073822;28;20218;-70
2023/04/29 00:04:12;;;;;;;16.10;8.77;;;18.50;99.90;;;;;;5073604;28;20185;-70
2023/04/29 00:06:41;;;;;;;14.03;8.40;;;18.40;99.90;;;;;;5073425;28;20226;-71
2023/04/29 00:09:14;;;;;;;14.23;9.03;;;18.50;99.90;;;;;;5073622;28;20175;-70
2023/04/29 00:11:41;;;;;;;10.40;7.70;;;18.50;99.90;;;;;;5073247;28;20198;-70
2023/04/29 00:14:09;;;;;;;10.67;7.07;;;18.50;99.90;;;;;;5073512;28;20701;-70
2023/04/29 00:16:37;;;;;;;9.73;6.10;;;18.40;99.90;;;;;;5072986;28;20201;-71
2023/04/29 00:19:05;;;;;;;11.13;6.67;;;18.30;99.90;;;;;;5073337;28;20212;-69
2023/04/29 00:21:32;;;;;;;8.33;6.30;;;18.40;99.90;;;;;;5072956;28;20179;-69
2023/04/29 00:24:00;;;;;;;11.10;7.40;;;18.40;99.90;;;;;;5074553;28;20686;-69
2023/04/29 00:26:28;;;;;;;10.47;6.53;;;18.50;99.90;;;;;;5092774;28;20571;-69
2023/04/29 00:28:56;;;;;;;10.50;6.30;;;18.50;99.90;;;;;;5093584;28;20171;-69
2023/04/29 00:31:24;;;;;;;9.87;5.77;;;18.50;99.90;;;;;;5093659;28;20211;-70
2023/04/29 00:33:51;;;;;;;8.47;5.80;;;18.50;99.90;;;;;;5093492;28;20175;-69
2023/04/29 00:36:19;;;;;;;14.70;6.97;;;18.60;99.90;;;;;;5092012;28;20224;-69
2023/04/29 00:38:47;;;;;;;13.23;6.77;;;18.60;99.90;;;;;;5093268;28;20171;-70
2023/04/29 00:41:16;;;;;;;14.47;7.20;;;18.70;99.90;;;;;;5093237;28;20193;-70
2023/04/29 00:43:44;;;;;;;9.97;6.50;;;18.80;99.90;;;;;;5093004;28;20188;-70
2023/04/29 00:46:12;;;;;;;13.20;6.10;;;18.80;99.90;;;;;;5093196;28;20176;-70
2023/04/29 00:48:40;;;;;;;11.50;6.27;;;18.80;99.90;;;;;;5093268;28;20211;-71
2023/04/29 00:51:09;;;;;;;7.67;5.13;;;18.70;99.90;;;;;;5093248;28;20535;-70
2023/04/29 00:53:38;;;;;;;9.70;5.00;;;18.70;99.90;;;;;;5091881;28;20189;-72
2023/04/29 00:56:07;;;;;;;9.93;4.93;;;18.70;99.90;;;;;;5093088;28;20200;-70
2023/04/29 00:58:38;;;;;;;10.30;5.50;;;18.60;99.90;;;;;;5092999;28;20185;-69
2023/04/29 01:01:06;;;;;;;10.77;5.73;;;18.60;99.90;;;;;;5093038;28;20183;-70
2023/04/29 01:03:33;;;;;;;8.03;5.37;;;18.50;99.90;;;;;;5092827;28;20183;-71
2023/04/29 01:06:27;;;;;;;9.10;5.77;;;18.50;99.90;;;;;;5092854;28;20682;-71
2023/04/29 01:09:17;;;;;;;10.67;6.20;;;18.60;99.90;;;;;;5096964;28;20170;-71
2023/04/29 01:12:26;;;;;;;12.60;5.50;;;18.60;99.90;;;;;;5096937;28;20176;-71
2023/04/29 01:15:08;;;;;;;11.80;4.93;;;18.40;99.90;;;;;;5084528;28;20237;-70
2023/04/29 01:18:16;;;;;;;9.60;4.97;;;18.30;99.90;;;;;;5097128;28;20233;-71
2023/04/29 01:20:45;;;;;;;11.30;5.80;;;18.20;99.90;;;;;;5089371;28;20561;-71
2023/04/29 01:23:13;;;;;;;11.77;5.90;;;18.00;99.90;;;;;;5096856;28;20188;-71
2023/04/29 01:25:42;;;;;;;10.93;5.50;;;18.10;99.90;;;;;;5096664;28;20183;-71
2023/04/29 01:28:26;;;;;;;9.90;5.50;;;18.10;99.90;;;;;;5096720;28;20176;-70
2023/04/29 01:31:19;;;;;;;15.67;5.77;;;18.00;99.90;;;;;;5096906;28;20270;-71
2023/04/29 01:34:34;;;;;;;10.20;5.30;;;18.00;99.90;;;;;;5096396;28;20187;-69
2023/04/29 01:37:23;;;;;;;8.90;5.13;;;17.90;99.90;;;;;;5077335;28;20410;-70
2023/04/29 01:40:16;;;;;;;9.90;5.93;;;17.90;99.90;;;;;;5096601;28;20195;-71
2023/04/29 01:43:03;;;;;;;8.60;5.53;;;18.00;99.90;;;;;;5096432;28;20183;-70
2023/04/29 01:45:33;;;;;;;8.90;6.17;;;18.10;99.90;;;;;;5095043;28;20190;-69
2023/04/29 01:48:01;;;;;;;9.03;6.53;;;18.10;99.90;;;;;;5096480;28;20171;-70
2023/04/29 01:50:29;;;;;;;15.33;7.30;;;18.00;99.90;;;;;;5096461;28;20186;-70
2023/04/29 01:52:57;;;;;;;14.73;8.63;;;18.00;99.90;;;;;;5096368;28;20197;-70
2023/04/29 01:55:25;;;;;;;13.70;7.50;;;18.00;99.90;;;;;;5096038;28;20178;-70
2023/04/29 01:57:53;;;;;;;17.23;9.97;;;18.10;99.90;;;;;;5096277;28;20225;-71
2023/04/29 02:00:20;;;;;;;17.47;10.33;;;18.20;99.90;;;;;;5096155;28;20233;-70
2023/04/29 02:02:48;;;;;;;13.83;9.27;;;18.20;99.90;;;;;;5096023;28;20180;-71
2023/04/29 02:05:16;;;;;;;15.87;9.20;;;18.20;99.90;;;;;;5095721;28;20181;-69
2023/04/29 02:07:44;;;;;;;13.50;8.57;;;18.10;99.90;;;;;;5096215;28;20236;-70
2023/04/29 02:10:12;;;;;;;14.73;7.90;;;18.10;99.90;;;;;;5095814;28;20182;-70
2023/04/29 02:12:40;;;;;;;15.10;8.23;;;18.20;99.90;;;;;;5095828;28;20179;-69
2023/04/29 02:15:08;;;;;;;13.30;7.63;;;18.10;99.90;;;;;;5095893;28;20209;-70
2023/04/29 02:17:36;;;;;;;14.77;8.10;;;18.10;99.90;;;;;;5095108;28;20215;-70
2023/04/29 02:20:04;;;;;;;12.83;8.20;;;18.20;99.90;;;;;;5095651;28;20665;-70
2023/04/29 02:22:32;;;;;;;8.50;7.23;;;18.20;99.90;;;;;;5095591;28;20202;-70
2023/04/29 02:24:59;;;;;;;14.47;8.23;;;18.20;99.90;;;;;;5095467;28;20179;-71
2023/04/29 02:27:27;;;;;;;14.77;7.57;;;18.10;99.90;;;;;;5095593;28;20175;-70
2023/04/29 02:29:55;;;;;;;13.97;8.37;;;18.10;99.90;;;;;;5095384;28;20187;-70
2023/04/29 02:32:23;;;;;;;12.17;9.00;;;18.20;99.90;;;;;;5095888;28;20204;-70
2023/04/29 02:34:51;;;;;;;16.47;10.93;;;18.30;99.90;;;;;;5095363;28;20183;-70
2023/04/29 02:37:18;;;;;;;16.30;11.13;;;18.30;99.90;;;;;;5095342;28;20317;-70
2023/04/29 02:39:46;;;;;;;12.83;9.43;;;18.30;99.90;;;;;;5095342;28;20262;-69
2023/04/29 02:42:14;;;;;;;16.37;8.40;;;18.40;99.90;;;;;;5095550;28;20321;-70
2023/04/29 02:44:42;;;;;;;9.77;6.27;;;18.40;99.90;;;;;;5095262;28;20563;-69
2023/04/29 02:47:10;;;;;;;10.47;5.10;;;18.40;99.90;;;;;;5095191;28;20176;-70
2023/04/29 02:49:38;;;;;;;11.77;4.87;;;18.40;99.90;;;;;;5095170;28;20263;-69
2023/04/29 02:52:06;;;;;;;8.97;4.40;;;18.40;99.90;;;;;;5095165;28;20171;-70
2023/04/29 02:54:34;;;;;;;13.47;4.90;;;18.40;99.90;;;;;;5095236;28;20175;-70
2023/04/29 02:57:01;;;;;;;11.73;5.30;;;18.30;99.90;;;;;;5094923;28;20556;-69
2023/04/29 02:59:29;;;;;;;11.17;5.40;;;18.30;99.90;;;;;;5095156;28;20174;-69
2023/04/29 03:01:57;;;;;;;10.53;5.30;;;18.20;99.90;;;;;;5095042;28;20180;-70
2023/04/29 03:04:24;;;;;;;8.07;4.63;;;18.20;99.90;;;;;;5094950;28;20167;-70
2023/04/29 03:06:54;;;;;;;8.67;5.53;;;18.20;99.90;;;;;;5095248;28;20217;-70
2023/04/29 03:09:23;;;;;;;6.87;4.90;;;18.20;99.90;;;;;;5094798;28;20245;-70
2023/04/29 03:11:52;;;;;;;11.90;6.13;;;18.30;99.90;;;;;;5094689;28;20179;-70
2023/04/29 03:14:19;;;;;;;14.83;5.77;;;18.40;99.90;;;;;;5094567;28;20223;-71
2023/04/29 03:16:47;;;;;;;12.47;5.40;;;18.40;99.90;;;;;;5094588;28;20211;-70
2023/04/29 03:19:15;;;;;;;12.50;5.87;;;18.40;99.90;;;;;;5094739;28;20178;-70
2023/04/29 03:21:44;;;;;;;8.37;6.30;;;18.30;99.90;;;;;;5094525;28;20174;-70
2023/04/29 03:24:11;;;;;;;8.97;5.87;;;18.30;99.90;;;;;;5094478;28;20586;-70
2023/04/29 03:26:41;;;;;;;9.00;5.53;;;18.30;99.90;;;;;;5094162;28;20182;-70
2023/04/29 03:29:09;;;;;;;9.10;5.37;;;18.40;99.90;;;;;;5094229;28;20262;-69
2023/04/29 03:31:37;;;;;;;8.43;5.80;;;18.30;99.90;;;;;;5093709;28;20692;-69
2023/04/29 03:34:05;;;;;;;16.20;7.50;;;18.30;99.90;;;;;;5094157;28;20163;-69
2023/04/29 03:36:33;;;;;;;14.47;7.93;;;18.30;99.90;;;;;;5094258;28;20204;-69
2023/04/29 03:39:00;;;;;;;11.53;6.87;;;18.30;99.90;;;;;;5094155;28;20167;-68
2023/04/29 03:41:28;;;;;;;9.93;6.80;;;18.30;99.90;;;;;;5080406;28;20234;-68
2023/04/29 03:43:59;;;;;;;10.97;5.63;;;18.40;99.90;;;;;;5071727;28;20180;-68
2023/04/29 03:46:27;;;;;;;9.73;5.20;;;18.40;99.90;;;;;;5072748;28;20262;-70
2023/04/29 03:48:55;;;;;;;8.07;4.70;;;18.30;99.90;;;;;;5065997;28;21029;-71
2023/04/29 03:51:26;;;;;;;7.70;5.23;;;18.30;99.90;;;;;;5069844;28;20207;-69
2023/04/29 03:53:56;;;;;;;10.13;5.03;;;18.30;99.90;;;;;;5071860;28;20176;-70
2023/04/29 03:56:24;;;;;;;11.77;5.60;;;18.30;99.90;;;;;;5071429;28;20681;-71
2023/04/29 03:58:53;;;;;;;9.40;5.37;;;18.40;99.90;;;;;;5071963;28;20177;-71
2023/04/29 04:01:21;;;;;;;8.37;6.00;;;18.40;99.90;;;;;;5070671;28;20212;-70
2023/04/29 04:03:48;;;;;;;6.33;4.70;;;18.30;99.90;;;;;;5071388;28;20214;-72
2023/04/29 04:06:16;;;;;;;6.77;4.93;;;18.20;99.90;;;;;;5071764;28;20234;-70
2023/04/29 04:08:44;;;;;;;5.53;4.50;;;18.20;99.90;;;;;;5071773;28;20621;-68
2023/04/29 04:11:13;;;;;;;8.10;5.33;;;18.20;99.90;;;;;;5071318;28;20844;-71
2023/04/29 04:13:44;;;;;;;8.87;6.17;;;18.10;99.90;;;;;;5071320;28;20372;-71
2023/04/29 04:16:12;;;;;;;7.47;5.40;;;18.20;99.90;;;;;;5069676;28;20220;-71
2023/04/29 04:18:44;;;;;;;10.13;6.43;;;18.20;99.90;;;;;;5071066;28;20225;-71
2023/04/29 04:21:12;;;;;;;10.17;6.40;;;18.20;99.90;;;;;;5071709;28;20230;-71
2023/04/29 04:23:40;;;;;;;9.50;6.13;;;18.20;99.90;;;;;;5071460;28;20242;-68
2023/04/29 04:26:08;;;;;;;10.87;5.77;;;18.20;99.90;;;;;;5070363;28;20191;-70
2023/04/29 04:28:36;;;;;;;6.97;5.53;;;18.20;99.90;;;;;;5071221;28;20180;-69
2023/04/29 04:31:04;;;;;;;7.37;5.03;;;18.10;99.90;;;;;;5071194;28;20187;-70
2023/04/29 04:33:33;;;;;;;6.20;4.67;;;18.00;99.90;;;;;;5070903;28;20181;-71
2023/04/29 04:36:01;;;;;;;8.83;5.30;;;17.90;99.90;;;;;;5070018;28;20228;-69
2023/04/29 04:38:28;;;;;;;11.00;5.00;;;17.80;99.90;;;;;;5071384;28;20172;-72
2023/04/29 04:40:56;;;;;;;8.07;4.83;;;17.90;99.90;;;;;;5069699;28;20192;-72
2023/04/29 04:43:24;;;;;;;8.50;5.60;;;17.80;99.90;;;;;;5070822;28;20191;-70
2023/04/29 04:45:52;;;;;;;9.63;5.80;;;17.80;99.90;;;;;;5070897;28;20630;-70
2023/04/29 04:48:20;;;;;;;9.20;5.77;;;17.90;99.90;;;;;;5069412;28;20179;-71
2023/04/29 04:50:48;;;;;;;9.97;5.50;;;17.90;99.90;;;;;;5069388;28;20604;-71
2023/04/29 04:53:16;;;;;;;8.40;6.33;;;17.90;99.90;;;;;;5071599;28;20241;-70
2023/04/29 04:55:44;;;;;;;10.47;5.77;;;17.80;99.90;;;;;;5070710;28;20200;-72
2023/04/29 04:58:12;;;;;;;11.03;6.00;;;17.80;99.90;;;;;;5062006;28;20203;-72
2023/04/29 05:00:44;;;;;;;8.33;5.73;;;17.70;99.90;;;;;;5071321;28;20175;-73
2023/04/29 05:03:12;;;;;;;7.97;5.77;;;17.80;99.90;;;;;;5067545;28;20188;-69
2023/04/29 05:05:40;;;;;;;11.43;7.27;;;17.90;99.90;;;;;;5071318;28;20183;-72
2023/04/29 05:08:08;;;;;;;9.77;7.13;;;17.90;99.90;;;;;;5071271;28;20232;-72
2023/04/29 05:10:41;;;;;;;8.77;5.50;;;17.90;99.90;;;;;;5070763;28;20178;-72
2023/04/29 05:13:10;;;;;;;12.77;8.50;;;17.90;99.90;;;;;;5070899;28;20215;-72
2023/04/29 05:15:38;;;;;;;8.30;6.93;;;17.80;99.90;;;;;;5071111;28;20180;-70
2023/04/29 05:18:06;;;;;;;8.23;6.40;;;17.90;99.90;;;;;;5070581;28;20199;-70
2023/04/29 05:20:34;;;;;;;9.40;5.90;;;17.90;99.90;;;;;;5071331;28;20218;-71
2023/04/29 05:23:02;;;;;;;8.33;5.43;;;17.90;99.90;;;;;;5071077;28;20233;-72
2023/04/29 05:25:30;;;;;;;10.83;5.63;;;18.00;99.90;;;;;;5070509;28;20180;-72
2023/04/29 05:27:58;;;;;;;7.23;5.73;;;18.00;99.90;;;;;;5070584;28;20191;-72
2023/04/29 05:30:26;;;;;;;8.07;5.77;;;18.10;99.90;;;;;;5071011;28;20187;-73
2023/04/29 05:32:54;;;;;;;7.30;6.27;;;18.10;99.90;;;;;;5070359;28;20633;-72
2023/04/29 05:35:22;;;;;;;8.83;7.50;;;18.10;99.90;;;;;;5071087;28;20664;-69
2023/04/29 05:37:50;;;;;;;8.73;6.73;;;18.00;99.90;;;;;;5070670;28;20273;-72
2023/04/29 05:40:18;;;;;;;16.93;13.17;;;18.00;99.90;;;;;;5070141;28;20542;-70
2023/04/29 05:42:46;;;;;;;6.87;6.13;;;17.90;99.90;;;;;;5070957;28;20227;-68
2023/04/29 05:45:14;;;;;;;7.30;6.27;;;17.90;99.90;;;;;;5070822;28;20262;-73
2023/04/29 05:47:42;;;;;;;7.67;5.07;;;17.90;99.90;;;;;;5070319;28;20176;-71
2023/04/29 05:50:10;;;;;;;8.77;5.10;;;17.90;99.90;;;;;;5072046;28;20275;-72
2023/04/29 05:52:38;;;;;;;9.30;6.07;;;17.80;99.90;;;;;;5072088;28;20270;-73
2023/04/29 05:55:06;;;;;;;7.80;5.60;;;17.80;99.90;;;;;;5073973;28;20185;-73
2023/04/29 05:57:34;;;;;;;6.77;5.57;;;17.80;99.90;;;;;;5072969;28;20234;-70
2023/04/29 06:00:02;;;;;;;11.40;6.27;;;17.80;99.90;;;;;;5074482;28;20180;-72
2023/04/29 06:02:30;;;;;;;9.90;5.83;;;17.80;99.90;;;;;;5073825;28;20184;-69
2023/04/29 06:04:58;;;;;;;9.17;6.10;;;17.90;99.90;;;;;;5074870;28;20203;-70
2023/04/29 06:07:26;;;;;;;13.23;5.80;;;17.90;99.90;;;;;;5074220;28;20219;-71
2023/04/29 06:09:55;;;;;;;8.37;4.60;;;17.90;99.90;;;;;;5073818;28;20260;-69
2023/04/29 06:12:23;;;;;;;9.20;4.80;;;17.90;99.90;;;;;;5073983;28;20176;-72
2023/04/29 06:14:51;;;;;;;8.17;5.00;;;17.80;99.90;;;;;;5074034;28;20231;-72
2023/04/29 06:17:19;;;;;;;5.97;4.83;;;17.80;99.90;;;;;;5073263;28;20216;-71
2023/04/29 06:19:46;;;;;;;5.03;4.30;;;17.70;99.90;;;;;;5074226;28;20181;-71
2023/04/29 06:22:14;;;;;;;7.83;5.20;;;17.60;99.90;;;;;;5073860;28;20206;-70
2023/04/29 06:24:46;;;;;;;7.27;4.07;;;17.60;99.90;;;;;;5073648;28;20180;-71
2023/04/29 06:27:14;;;;;;;5.27;3.67;;;17.60;99.90;;;;;;5073759;28;20379;-68
2023/04/29 06:29:41;;;;;;;6.03;4.70;;;17.60;99.90;;;;;;5074255;28;20174;-71
2023/04/29 06:32:09;;;;;;;12.63;5.57;;;17.50;99.90;;;;;;5073700;28;20204;-71
2023/04/29 06:34:38;;;;;;;12.03;10.53;;;17.50;99.90;;;;;;5072830;28;20180;-71
2023/04/29 06:37:06;;;;;;;14.67;12.73;;;17.50;99.90;;;;;;5073541;28;20207;-71
2023/04/29 06:39:33;;;;;;;12.13;10.27;;;17.40;99.90;;;;;;5073805;28;20246;-70
2023/04/29 06:42:02;;;;;;;13.60;11.23;;;17.30;99.90;;;;;;5073946;28;20637;-72
2023/04/29 06:44:30;;;;;;;10.00;8.20;;;17.30;99.90;;;;;;5073974;28;20202;-72
2023/04/29 06:46:58;;;;;;;9.10;6.47;;;17.20;99.90;;;;;;5073085;28;20188;-72
2023/04/29 06:49:25;;;;;;;7.97;4.27;;;17.10;99.90;;;;;;5073864;28;20218;-73
2023/04/29 06:51:53;;;;;;;7.73;4.60;;;17.10;99.90;;;;;;5073662;28;20272;-71
2023/04/29 06:54:21;;;;;;;8.87;3.03;;;17.10;99.90;;;;;;5073286;28;20187;-72
2023/04/29 06:56:49;;;;;;;3.63;2.93;;;17.10;99.90;;;;;;5073037;28;20269;-70
2023/04/29 06:59:16;;;;;;;4.30;2.23;;;17.10;99.90;;;;;;5073787;28;20178;-71
2023/04/29 07:01:44;;;;;;;3.57;2.33;;;17.10;99.90;;;;;;5073029;28;20195;-71
2023/04/29 07:04:12;;;;;;;5.23;2.10;;;17.00;99.90;;;;;;5071758;28;20180;-71
2023/04/29 07:06:40;;;;;;;4.27;2.13;;;17.00;99.90;;;;;;5072909;28;20180;-71
2023/04/29 07:09:08;;;;;;;3.20;1.97;;;17.00;99.90;;;;;;5072789;28;20186;-69
2023/04/29 07:11:36;;;;;;;4.07;2.23;;;17.00;99.90;;;;;;5073468;28;20172;-72
2023/04/29 07:14:04;;;;;;;3.53;1.87;;;17.00;99.90;;;;;;5073195;28;20372;-68
2023/04/29 07:16:34;;;;;;;3.00;2.00;;;16.90;99.90;;;;;;5071971;28;20211;-70
2023/04/29 07:19:02;;;;;;;2.80;2.10;;;16.90;99.90;;;;;;5105875;27;20548;-71
2023/04/29 07:21:30;;;;;;;3.13;1.90;;;16.90;99.90;;;;;;5072974;28;20649;-70
2023/04/29 07:24:00;;;;;;;3.03;2.30;;;16.90;99.90;;;;;;5072472;28;20262;-70
2023/04/29 07:26:27;;;;;;;2.43;2.20;;;16.90;99.90;;;;;;5073077;28;20202;-70
2023/04/29 07:28:55;;;;;;;3.27;2.23;;;16.90;99.90;;;;;;5071396;28;20546;-69
2023/04/29 07:31:23;;;;;;;7.37;2.67;;;16.90;99.90;;;;;;5072513;28;20185;-70
2023/04/29 07:33:51;;;;;;;3.17;2.73;;;16.90;99.90;;;;;;5072997;28;20255;-69
2023/04/29 07:36:19;;;;;;;3.80;2.27;;;16.90;99.90;;;;;;5072876;28;20266;-70
2023/04/29 07:38:47;;;;;;;7.53;2.30;;;16.90;99.90;;;;;;5074234;28;20176;-69
2023/04/29 07:41:15;;;;;;;3.50;2.37;;;17.00;99.90;;;;;;5074410;28;20222;-70
2023/04/29 07:43:43;;;;;;;4.43;2.60;;;17.00;99.90;;;;;;5072607;28;20266;-70
2023/04/29 07:46:11;;;;;;;4.17;2.80;;;17.00;99.90;;;;;;5072288;28;20188;-70
2023/04/29 07:48:39;;;;;;;4.13;3.10;;;16.90;99.90;;;;;;5072726;28;20236;-70
2023/04/29 07:51:12;;;;;;;9.73;3.43;;;17.00;99.90;;;;;;5072539;28;20176;-71
2023/04/29 07:53:40;;;;;;;5.43;3.40;;;17.00;99.90;;;;;;5072070;28;20221;-71
2023/04/29 07:56:09;;;;;;;4.33;3.23;;;17.00;99.90;;;;;;5072265;28;20211;-71
2023/04/29 07:58:37;;;;;;;6.17;3.50;;;17.00;99.90;;;;;;5072260;28;20262;-70
2023/04/29 08:01:10;;;;;;;4.80;3.27;;;17.00;99.90;;;;;;5071666;28;20602;-70
2023/04/29 08:03:38;;;;;;;8.20;3.67;;;17.00;99.90;;;;;;5072150;28;20187;-69
2023/04/29 08:06:06;;;;;;;5.63;3.10;;;17.00;99.90;;;;;;5071658;28;20184;-71
2023/04/29 08:08:34;;;;;;;5.00;3.00;;;17.00;99.90;;;;;;5071832;28;20233;-71
2023/04/29 08:11:02;;;;;;;5.77;2.80;;;17.00;99.90;;;;;;5072276;28;20226;-71
2023/04/29 08:13:30;;;;;;;5.40;2.63;;;17.00;99.90;;;;;;5072069;28;20736;-71
2023/04/29 08:15:58;;;;;;;6.73;3.57;;;17.00;99.90;;;;;;5070900;28;20228;-70
2023/04/29 08:18:26;;;;;;;3.80;3.07;;;17.10;99.90;;;;;;5071998;28;20176;-69
2023/04/29 08:20:54;;;;;;;4.23;2.77;;;17.10;99.90;;;;;;5072586;28;20213;-70
2023/04/29 08:23:22;;;;;;;5.10;2.83;;;17.10;99.90;;;;;;5070818;28;20265;-71
2023/04/29 08:25:51;;;;;;;4.57;3.43;;;17.20;99.90;;;;;;5071629;28;20183;-73
2023/04/29 08:28:18;;;;;;;5.80;3.00;;;17.10;99.90;;;;;;5071874;28;20285;-72
2023/04/29 08:30:46;;;;;;;5.30;4.17;;;17.10;99.90;;;;;;5071328;28;20176;-72
2023/04/29 08:33:15;;;;;;;8.10;4.73;;;17.00;99.90;;;;;;5070388;28;20581;-71
2023/04/29 08:35:43;;;;;;;8.97;5.10;;;17.10;99.90;;;;;;5071735;28;20206;-71
2023/04/29 08:38:11;;;;;;;7.20;4.03;;;17.00;99.90;;;;;;5071350;28;20188;-72
2023/04/29 08:40:45;;;;;;;7.00;3.70;;;17.00;99.90;;;;;;5071528;28;20539;-72
2023/04/29 08:43:17;;;;;;;6.37;3.37;;;17.00;99.90;;;;;;5070229;28;20237;-72
2023/04/29 08:45:47;;;;;;;7.03;2.80;;;17.00;99.90;;;;;;5071346;28;20191;-72
2023/04/29 08:48:17;;;;;;;3.47;2.40;;;17.10;99.90;;;;;;5071725;28;20297;-72
2023/04/29 08:50:45;;;;;;;7.23;3.00;;;17.00;99.90;;;;;;5071439;28;20184;-72
2023/04/29 08:53:14;;;;;;;4.40;2.50;;;17.00;99.90;;;;;;5071270;28;20176;-71
2023/04/29 08:55:47;;;;;;;2.97;2.40;;;17.00;99.90;;;;;;5071332;28;20283;-71
2023/04/29 08:58:15;;;;;;;4.50;2.57;;;17.00;99.90;;;;;;5071645;28;20184;-72
2023/04/29 09:00:44;;;;;;;4.27;2.77;;;17.10;99.90;;;;;;5070876;28;20175;-72
2023/04/29 09:03:18;;;;;;;4.47;2.73;;;17.10;99.90;;;;;;5071589;28;20702;-72
2023/04/29 09:05:52;;;;;;;5.53;2.70;;;17.20;99.90;;;;;;5071520;28;20179;-71
2023/04/29 09:08:24;;;;;;;7.07;2.60;;;17.10;99.90;;;;;;5070990;28;21907;-72
2023/04/29 09:10:52;;;;;;;4.50;2.50;;;17.10;99.90;;;;;;5072178;28;20184;-71
2023/04/29 09:13:32;;;;;;;6.03;2.67;;;17.10;99.90;;;;;;5078573;28;20228;-72
2023/04/29 09:16:00;;;;;;;6.23;3.00;;;17.10;99.90;;;;;;5075792;28;20234;-72
2023/04/29 09:18:46;;;;;;;8.07;2.50;;;17.10;99.90;;;;;;5076918;28;20300;-72
2023/04/29 09:21:18;;;;;;;5.40;2.13;;;17.10;99.90;;;;;;5075625;28;20194;-72
2023/04/29 09:23:47;;;;;;;6.43;3.07;;;17.10;99.90;;;;;;5071397;28;20176;-72
2023/04/29 09:26:16;;;;;;;7.00;2.47;;;17.00;99.90;;;;;;5071143;28;20187;-72
2023/04/29 09:28:43;;;;;;;6.27;2.40;;;16.90;99.90;;;;;;5072702;28;20185;-72
2023/04/29 09:31:14;;;;;;;5.83;2.50;;;16.90;99.90;;;;;;5074497;28;20180;-71
2023/04/29 09:33:56;;;;;;;9.10;3.37;;;16.90;99.90;;;;;;5075193;28;20177;-72
2023/04/29 09:36:46;;;;;;;6.67;2.60;;;16.90;99.90;;;;;;5074615;28;20207;-72
2023/04/29 09:39:19;;;;;;;6.17;2.80;;;16.90;99.90;;;;;;5075135;28;20266;-72
2023/04/29 09:41:53;;;;;;;4.03;2.37;;;16.90;99.90;;;;;;5074918;28;20229;-72
2023/04/29 09:44:34;;;;;;;9.30;2.63;;;16.90;99.90;;;;;;5074652;28;20177;-72
2023/04/29 09:47:02;;;;;;;5.37;2.50;;;16.80;99.90;;;;;;5075050;28;20597;-73
2023/04/29 09:49:41;;;;;;;7.33;2.93;;;16.90;99.90;;;;;;5074295;28;20222;-72
2023/04/29 09:52:15;;;;;;;7.97;2.60;;;16.80;99.90;;;;;;5073767;28;20521;-72
2023/04/29 09:54:44;;;;;;;4.03;2.23;;;16.90;99.90;;;;;;5074288;28;20191;-72
2023/04/29 09:57:14;;;;;;;4.50;2.10;;;16.90;99.90;;;;;;5074475;28;20286;-71
2023/04/29 09:59:43;;;;;;;8.77;3.77;;;16.90;99.90;;;;;;5072599;28;20233;-72
2023/04/29 10:02:17;;;;;;;5.37;2.20;;;16.80;99.90;;;;;;5074217;28;20166;-72
2023/04/29 10:04:47;;;;;;;4.43;2.47;;;16.80;99.90;;;;;;5074559;28;20556;-72
2023/04/29 10:07:16;;;;;;;5.67;2.67;;;16.90;99.90;;;;;;5073998;28;20263;-74
2023/04/29 10:09:46;;;;;;;4.87;2.60;;;16.90;99.90;;;;;;5074137;28;20601;-72
2023/04/29 10:12:19;;;;;;;4.90;2.73;;;16.90;99.90;;;;;;5073970;28;20184;-72
2023/04/29 10:15:04;;;;;;;7.23;3.00;;;16.90;99.90;;;;;;5073688;28;20356;-72
2023/04/29 10:18:03;;;;;;;5.90;3.00;;;16.90;99.90;;;;;;5074056;28;20219;-72
2023/04/29 10:20:31;;;;;;;5.70;2.73;;;16.90;99.90;;;;;;5074011;28;20208;-72
2023/04/29 10:22:59;;;;;;;4.63;2.70;;;16.90;99.90;;;;;;5073632;28;20184;-72
2023/04/29 10:25:28;;;;;;;6.07;3.00;;;16.90;99.90;;;;;;5073765;28;20184;-72
2023/04/29 10:27:57;;;;;;;3.67;2.20;;;16.90;99.90;;;;;;5074031;28;20187;-72
2023/04/29 10:30:25;;;;;;;3.33;1.60;;;16.90;99.90;;;;;;5073377;28;20183;-71
2023/04/29 10:32:55;;;;;;;5.90;2.20;;;16.80;99.90;;;;;;5073960;28;20219;-72
2023/04/29 10:35:24;;;;;;;7.17;1.90;;;16.80;99.90;;;;;;5073838;28;20180;-71
2023/04/29 10:37:55;;;;;;;5.57;1.90;;;16.80;99.90;;;;;;5073003;28;20308;-71
2023/04/29 10:40:31;;;;;;;4.07;2.03;;;16.80;99.90;;;;;;5073649;28;20192;-72
2023/04/29 10:42:58;;;;;;;4.53;1.90;;;16.80;99.90;;;;;;5073560;28;20179;-71
2023/04/29 10:45:33;;;;;;;3.03;1.80;;;16.80;99.90;;;;;;5073783;28;20446;-73
2023/04/29 10:48:10;;;;;;;2.47;1.83;;;16.80;99.90;;;;;;5073756;28;20201;-72
2023/04/29 10:50:59;;;;;;;10.73;2.30;;;16.80;99.90;;;;;;5073108;28;20191;-71
2023/04/29 10:53:28;;;;;;;2.30;1.90;;;16.90;99.90;;;;;;5073712;28;20180;-72
2023/04/29 10:56:04;;;;;;;3.10;2.13;;;16.90;99.90;;;;;;5073391;28;20206;-71
2023/04/29 10:58:45;;;;;;;3.60;1.90;;;16.90;99.90;;;;;;5073109;28;20182;-72
2023/04/29 11:01:17;;;;;;;3.90;2.60;;;16.90;99.90;;;;;;5073060;28;20187;-72
2023/04/29 11:03:59;;;;;;;3.40;2.47;;;16.90;99.90;;;;;;5073362;28;20739;-73
2023/04/29 11:06:36;;;;;;;4.50;2.50;;;16.90;99.90;;;;;;5071472;28;20214;-71
2023/04/29 11:09:13;;;;;;;6.07;2.50;;;16.90;99.90;;;;;;5071563;28;20220;-72
2023/04/29 11:11:45;;;;;;;9.57;3.17;;;16.90;99.90;;;;;;5073157;28;20180;-72
2023/04/29 11:14:15;;;;;;;5.47;3.90;;;16.90;99.90;;;;;;5071001;28;20262;-72
2023/04/29 11:16:59;;;;;;;6.10;3.13;;;16.80;99.90;;;;;;5073117;28;20551;-72
2023/04/29 11:19:35;;;;;;;5.40;4.10;;;16.80;99.90;;;;;;5072963;28;20217;-72
2023/04/29 11:22:23;;;;;;;5.20;3.30;;;16.70;99.90;;;;;;5072151;28;20648;-72
2023/04/29 11:25:02;;;;;;;7.17;4.23;;;16.70;99.90;;;;;;5066014;28;20180;-71
2023/04/29 11:27:37;;;;;;;5.80;3.57;;;16.60;99.90;;;;;;5072591;28;20249;-72
2023/04/29 11:30:06;;;;;;;5.60;3.13;;;16.60;99.90;;;;;;5073134;28;20586;-72
2023/04/29 11:32:39;;;;;;;4.23;3.13;;;16.60;99.90;;;;;;5072629;28;20262;-72
2023/04/29 11:35:19;;;;;;;3.73;2.53;;;16.60;99.90;;;;;;5072592;28;20229;-73
2023/04/29 11:37:47;;;;;;;3.40;2.30;;;16.50;99.90;;;;;;5072731;28;20229;-72
2023/04/29 11:40:15;;;;;;;1.80;1.40;;;16.60;99.90;;;;;;5072782;28;20661;-72
2023/04/29 11:42:50;;;;;;;1.37;1.20;;;16.50;99.90;;;;;;5072050;28;20645;-72
2023/04/29 11:45:19;;;;;;;2.37;1.30;;;16.50;99.90;;;;;;5072652;28;20234;-73
2023/04/29 11:47:48;;;;;;;1.53;0.97;;;16.50;99.90;;;;;;5070988;28;20230;-71
2023/04/29 11:50:18;;;;;;;4.50;1.10;;;16.50;99.90;;;;;;5071834;28;20191;-72
2023/04/29 11:52:51;;;;;;;1.60;1.13;;;16.50;99.90;;;;;;5072178;28;20242;-72
2023/04/29 11:55:19;;;;;;;1.77;0.70;;;16.40;99.90;;;;;;5072528;28;20199;-71
2023/04/29 11:57:51;;;;;;;1.13;1.00;;;16.30;99.90;;;;;;5071616;28;20319;-71
2023/04/29 12:00:18;;;;;;;3.17;1.13;;;16.30;99.90;;;;;;5072533;28;20645;-73
2023/04/29 12:02:47;;;;;;;4.03;0.90;;;16.20;99.90;;;;;;5072121;28;20191;-72
2023/04/29 12:05:15;;;;;;;2.10;0.83;;;16.20;99.90;;;;;;5071461;28;20645;-72
2023/04/29 12:07:43;;;;;;;2.23;0.50;;;16.10;99.90;;;;;;5072222;28;20204;-73
2023/04/29 12:10:12;;;;;;;4.27;0.87;;;16.00;99.90;;;;;;5052011;28;20173;-72
2023/04/29 12:12:42;;;;;;;2.17;0.40;;;16.00;99.90;;;;;;5061361;28;20561;-72
2023/04/29 12:15:13;;;;;;;2.63;0.60;;;16.00;99.90;;;;;;5072066;28;20241;-72
2023/04/29 12:17:42;;;;;;;2.17;0.40;;;15.90;99.90;;;;;;5071705;28;20207;-71
2023/04/29 12:20:11;;;;;;;1.57;0.57;;;15.90;99.90;;;;;;5071507;28;20184;-73
2023/04/29 12:22:39;;;;;;;3.00;0.80;;;15.90;99.90;;;;;;5070676;28;20196;-73
2023/04/29 12:25:07;;;;;;;2.90;0.90;;;15.90;99.90;;;;;;5071907;28;20230;-73
2023/04/29 12:27:40;;;;;;;5.67;1.10;;;15.80;99.90;;;;;;5071531;28;20179;-72
2023/04/29 12:30:09;;;;;;;2.43;0.70;;;15.80;99.90;;;;;;5071484;28;20184;-72
2023/04/29 12:32:37;;;;;;;1.57;0.70;;;15.70;99.90;;;;;;5071982;28;20668;-72
2023/04/29 12:35:06;;;;;;;0.90;0.60;;;15.70;99.90;;;;;;5071522;28;20187;-71
2023/04/29 12:37:34;;;;;;;1.07;0.73;;;15.60;99.90;;;;;;5071318;28;20696;-72
2023/04/29 12:40:02;;;;;;;3.23;0.60;;;15.60;99.90;;;;;;5071659;28;20183;-72
2023/04/29 12:42:33;;;;;;;5.67;0.90;;;15.60;99.90;;;;;;5071101;28;20198;-71
2023/04/29 12:45:01;;;;;;;2.43;0.70;;;15.50;99.90;;;;;;5071493;28;20183;-73
2023/04/29 12:47:39;;;;;;;9.27;1.07;;;15.50;99.90;;;;;;5071519;28;20176;-73
2023/04/29 12:50:08;;;;;;;2.73;0.60;;;15.50;99.90;;;;;;5071032;28;20187;-72
2023/04/29 12:52:35;;;;;;;1.90;0.70;;;15.50;99.90;;;;;;5071653;28;20262;-72
2023/04/29 12:55:03;;;;;;;2.23;0.63;;;15.50;99.90;;;;;;5071477;28;20184;-73
2023/04/29 12:57:31;;;;;;;2.40;0.80;;;15.40;99.90;;;;;;5069744;28;20235;-72
2023/04/29 12:59:59;;;;;;;3.17;0.73;;;15.50;99.90;;;;;;5071317;28;20704;-73